Kezdőlap
METAR-TAF:

METAR-TAF

Repülőterek :

Ouagadougou, Burkina Faso

földrajzi szélesség: 12-21N, földrajzi hosszúság: 001-31W, magasság: 316 m

Jelenlegi meteorológiai megfigyelések

A jelentés 1 órával és 1 perccel ezelõtt készült, 00:00 UTC
Nyugat-délnyugati szél 4 kt
Hőmérséklet 31°C
Páratartalom 40%
Légköri nyomás 1010 hPa
Látótávolság: 4500 m
Száraz légköri homály

METAR: DFFD 240000Z 24004KT 4500 HZ NSC 31/16 Q1010 BECMG 6000 NSW

Idő: 01:01 (01:01 UTC)

Előrejelzés

A jelentés 2 órával és 1 perccel ezelõtt készült, 23:00 UTC
Az előrejelzés 24-én 00 óra UTC és 25-én 06 óra UTC között érvényes
Nyugat-délnyugati szél 10 kt
Látótávolság: 8000 m
24-én 16 óra UTC és 24-én 22 óra UTC között ideiglenes
Kevés felhő 2600 lábon
Kevés felhő 4000 lábon, Cumulonimbus.
zivatar

TAF: DFFD 232300Z 2400/2506 24010KT 8000 NSC TEMPO 2416/2422 TS FEW026 FEW040CB

Meteorológiai megfigyelések és előrejelzések több, mint 4000 repülőtéren (METAR és TAF jelentéseket).

A térképen piros és sárga pontok jelzik az elérhető meteorológiai állomásokat.

Mozgassa az egeret a pont fölött, hogy megjelenjen az állomás neve.

Azután kattintson az időjárási megfigyelések és előrejelzések megtekintéséhez.

A térkép megváltoztatása: kattintson a fekete keresztel jelölt zöld gombra ráközelítéshez, a vonallal jelölt zöld gombra távolításhoz, vagy a zöld nyilakra a szomszédos térképek eléréséhez.


METAR-TAF: